Terminal Aerodrome Forecast
Issued by NWS

Home | Current Version | Previous Version | Text Only | Print | Product List | Glossary On
Versions: 1 2 3 4 5 6 7 8 9 10 11 12 13 14
000
FTUS44 KLZK 182300
TAFLIT
TAF
KLIT 182338Z 1900/1924 07003KT P6SM SCT070
     FM190300 07003KT P6SM SKC
      TEMPO 1911/1914 5SM BR
     FM191400 08006KT P6SM SCT250=

USA.gov is the U.S. government's official web portal to all federal, state and local government web resources and services.